createdAt,value
2023-05-11T00:02:20.732Z,3.60
2023-05-11T00:04:49.022Z,3.80
2023-05-11T00:07:16.788Z,3.72
2023-05-11T00:09:44.801Z,3.45
2023-05-11T00:12:13.645Z,3.47
2023-05-11T00:14:41.669Z,4.18
2023-05-11T00:17:09.304Z,4.05
2023-05-11T00:19:37.020Z,3.88
2023-05-11T00:22:04.804Z,4.20
2023-05-11T00:24:32.369Z,4.03
2023-05-11T00:27:00.072Z,3.33
2023-05-11T00:29:27.774Z,3.65
2023-05-11T00:31:55.597Z,3.53
2023-05-11T00:34:24.163Z,4.25
2023-05-11T00:36:55.797Z,3.78
2023-05-11T00:39:24.887Z,3.80
2023-05-11T00:41:52.698Z,3.58
2023-05-11T00:44:20.554Z,3.33
2023-05-11T00:46:49.195Z,3.65
2023-05-11T00:49:17.748Z,3.75
2023-05-11T00:51:45.634Z,4.15
2023-05-11T00:54:16.102Z,3.58
2023-05-11T00:56:43.838Z,3.70
2023-05-11T00:59:13.576Z,3.92
2023-05-11T01:01:41.601Z,4.50
2023-05-11T01:04:09.920Z,3.78
2023-05-11T01:06:46.784Z,3.72
2023-05-11T01:10:06.258Z,4.55
2023-05-11T01:13:13.595Z,4.53
2023-05-11T01:15:45.110Z,3.65
2023-05-11T01:18:29.600Z,3.93
2023-05-11T01:21:02.061Z,3.53
2023-05-11T01:23:49.484Z,3.97
2023-05-11T01:26:46.674Z,4.03
2023-05-11T01:29:53.047Z,4.35
2023-05-11T01:32:24.375Z,3.63
2023-05-11T01:35:06.810Z,4.68
2023-05-11T01:37:36.242Z,3.83
2023-05-11T01:40:07.280Z,3.88
2023-05-11T01:42:55.434Z,3.38
2023-05-11T01:45:24.196Z,4.35
2023-05-11T01:47:53.748Z,4.13
2023-05-11T01:50:23.478Z,3.42
2023-05-11T01:52:52.141Z,4.13
2023-05-11T01:55:22.018Z,3.85
2023-05-11T01:57:53.290Z,3.60
2023-05-11T02:00:21.343Z,3.70
2023-05-11T02:02:49.997Z,3.75
2023-05-11T02:05:22.631Z,4.00
2023-05-11T02:07:52.869Z,3.55
2023-05-11T02:10:21.668Z,4.28
2023-05-11T02:12:52.336Z,3.85
2023-05-11T02:15:22.930Z,3.90
2023-05-11T02:17:51.657Z,4.60
2023-05-11T02:20:20.754Z,3.70
2023-05-11T02:22:49.219Z,4.25
2023-05-11T02:25:17.583Z,3.80
2023-05-11T02:27:45.346Z,4.05
2023-05-11T02:30:13.952Z,4.30
2023-05-11T02:32:48.534Z,4.57
2023-05-11T02:35:37.843Z,4.15
2023-05-11T02:38:06.424Z,4.10
2023-05-11T02:40:41.200Z,4.47
2023-05-11T02:43:11.765Z,4.32
2023-05-11T02:45:45.738Z,4.15
2023-05-11T02:48:22.138Z,3.90
2023-05-11T02:50:51.821Z,4.80
2023-05-11T02:53:20.656Z,4.68
2023-05-11T02:55:49.071Z,3.97
2023-05-11T02:58:17.853Z,4.00
2023-05-11T03:00:51.296Z,4.13
2023-05-11T03:03:19.354Z,4.45
2023-05-11T03:05:47.042Z,4.75
2023-05-11T03:08:15.216Z,4.75
2023-05-11T03:10:43.682Z,3.95
2023-05-11T03:13:11.826Z,4.65
2023-05-11T03:15:41.428Z,4.18
2023-05-11T03:18:09.537Z,4.47
2023-05-11T03:20:39.198Z,4.30
2023-05-11T03:23:07.642Z,4.35
2023-05-11T03:25:36.058Z,4.25
2023-05-11T03:28:04.889Z,4.20
2023-05-11T03:30:34.782Z,4.50
2023-05-11T03:33:03.226Z,4.20
2023-05-11T03:35:34.211Z,4.40
2023-05-11T03:38:03.444Z,4.22
2023-05-11T03:40:33.436Z,4.32
2023-05-11T03:43:03.793Z,4.80
2023-05-11T03:45:32.527Z,3.95
2023-05-11T03:48:06.334Z,3.72
2023-05-11T03:50:34.260Z,4.70
2023-05-11T03:53:02.844Z,4.15
2023-05-11T03:55:30.497Z,4.20
2023-05-11T03:57:58.665Z,4.30
2023-05-11T04:00:26.393Z,4.28
2023-05-11T04:02:55.356Z,3.92
2023-05-11T04:05:22.974Z,5.10
2023-05-11T04:07:51.830Z,4.57
2023-05-11T04:10:19.517Z,4.40
2023-05-11T04:12:47.920Z,3.78
2023-05-11T04:15:16.101Z,3.97
2023-05-11T04:17:43.838Z,3.80
2023-05-11T04:20:12.213Z,3.63
2023-05-11T04:22:40.063Z,3.95
2023-05-11T04:25:08.359Z,3.20
2023-05-11T04:27:36.173Z,4.28
2023-05-11T04:30:06.440Z,3.60
2023-05-11T04:32:35.583Z,3.60
2023-05-11T04:35:03.554Z,4.40
2023-05-11T04:37:35.963Z,4.45
2023-05-11T04:40:07.579Z,3.63
2023-05-11T04:42:40.610Z,4.25
2023-05-11T04:45:13.645Z,3.45
2023-05-11T04:47:41.909Z,4.18
2023-05-11T04:50:11.364Z,3.72
2023-05-11T04:52:39.929Z,3.15
2023-05-11T04:55:07.953Z,3.60
2023-05-11T04:57:36.412Z,3.63
2023-05-11T05:00:07.275Z,3.88
2023-05-11T05:02:35.980Z,3.50
2023-05-11T05:05:04.299Z,3.00
2023-05-11T05:07:32.423Z,2.97
2023-05-11T05:09:59.959Z,3.55
2023-05-11T05:12:28.044Z,3.80
2023-05-11T05:14:55.721Z,3.40
2023-05-11T05:17:23.706Z,4.40
2023-05-11T05:19:51.416Z,3.28
2023-05-11T05:22:19.566Z,3.45
2023-05-11T05:24:47.205Z,3.28
2023-05-11T05:27:15.661Z,3.33
2023-05-11T05:29:43.650Z,4.03
2023-05-11T05:32:12.073Z,3.25
2023-05-11T05:34:40.124Z,3.50
2023-05-11T05:37:09.403Z,3.33
2023-05-11T05:39:37.115Z,3.35
2023-05-11T05:42:05.055Z,3.30
2023-05-11T05:44:33.300Z,3.25
2023-05-11T05:47:01.353Z,3.28
2023-05-11T05:49:32.241Z,3.25
2023-05-11T05:52:01.049Z,3.70
2023-05-11T05:54:30.295Z,3.22
2023-05-11T05:56:59.122Z,3.42
2023-05-11T05:59:27.098Z,3.38
2023-05-11T06:01:58.325Z,3.35
2023-05-11T06:04:26.254Z,3.97
2023-05-11T06:06:58.488Z,2.88
2023-05-11T06:09:27.055Z,3.38
2023-05-11T06:11:55.548Z,3.25
2023-05-11T06:14:25.402Z,2.75
2023-05-11T06:16:53.893Z,3.22
2023-05-11T06:19:22.675Z,2.45
2023-05-11T06:21:51.572Z,2.83
2023-05-11T06:24:20.061Z,3.05
2023-05-11T06:26:48.717Z,2.67
2023-05-11T06:29:19.162Z,2.50
2023-05-11T06:31:49.648Z,2.75
2023-05-11T06:34:17.329Z,2.70
2023-05-11T06:36:45.461Z,2.70
2023-05-11T06:39:13.662Z,3.17
2023-05-11T06:41:42.612Z,2.97
2023-05-11T06:44:10.505Z,2.53
2023-05-11T06:46:39.777Z,3.17
2023-05-11T06:49:09.113Z,2.85
2023-05-11T06:51:38.806Z,2.50
2023-05-11T06:54:07.400Z,3.00
2023-05-11T06:56:37.974Z,2.47
2023-05-11T06:59:05.979Z,2.65
2023-05-11T07:01:34.333Z,2.35
2023-05-11T07:04:03.026Z,2.05
2023-05-11T07:06:33.996Z,2.22
2023-05-11T07:09:03.590Z,2.08
2023-05-11T07:11:32.000Z,2.40
2023-05-11T07:13:59.807Z,2.10
2023-05-11T07:16:28.579Z,2.83
2023-05-11T07:18:56.393Z,2.45
2023-05-11T07:21:24.875Z,1.70
2023-05-11T07:23:52.737Z,2.15
2023-05-11T07:26:24.009Z,1.95
2023-05-11T07:28:52.002Z,2.10
2023-05-11T07:31:20.685Z,1.75
2023-05-11T07:33:48.954Z,2.10
2023-05-11T07:36:17.347Z,2.38
2023-05-11T07:38:45.302Z,2.03
2023-05-11T07:41:13.524Z,1.85
2023-05-11T07:43:42.264Z,1.95
2023-05-11T07:46:10.989Z,2.35
2023-05-11T07:48:39.585Z,2.05
2023-05-11T07:51:08.408Z,1.48
2023-05-11T07:53:36.821Z,1.77
2023-05-11T07:56:06.658Z,2.20
2023-05-11T07:58:34.745Z,2.13
2023-05-11T08:01:03.317Z,1.85
2023-05-11T08:03:31.174Z,1.90
2023-05-11T08:05:59.822Z,1.90
2023-05-11T08:08:27.761Z,1.98
2023-05-11T08:10:56.171Z,1.77
2023-05-11T08:13:25.865Z,1.90
2023-05-11T08:15:54.517Z,2.00
2023-05-11T08:18:24.556Z,2.00
2023-05-11T08:20:53.018Z,2.22
2023-05-11T08:23:21.389Z,2.00
2023-05-11T08:25:55.096Z,2.28
2023-05-11T08:28:23.640Z,2.13
2023-05-11T08:30:59.298Z,2.00
2023-05-11T08:35:59.591Z,2.00
2023-05-11T08:38:27.435Z,2.20
2023-05-11T08:40:55.876Z,1.70
2023-05-11T08:43:24.740Z,1.98
2023-05-11T08:45:58.174Z,1.70
2023-05-11T08:48:26.954Z,1.98
2023-05-11T08:50:55.480Z,1.98
2023-05-11T08:53:24.176Z,1.58
2023-05-11T08:55:52.705Z,2.08
2023-05-11T08:58:22.803Z,1.70
2023-05-11T09:00:52.567Z,6.25
2023-05-11T09:03:21.466Z,1.92
2023-05-11T09:05:50.383Z,2.10
2023-05-11T09:08:18.892Z,2.10
2023-05-11T09:10:46.937Z,2.17
2023-05-11T09:13:14.664Z,1.60
2023-05-11T09:15:42.842Z,1.83
2023-05-11T09:18:10.748Z,1.33
2023-05-11T09:20:44.209Z,2.30
2023-05-11T09:25:40.519Z,1.90
2023-05-11T09:28:15.913Z,1.75
2023-05-11T09:30:44.754Z,2.00
2023-05-11T09:33:12.469Z,1.88
2023-05-11T09:35:43.300Z,1.63
2023-05-11T09:38:13.071Z,1.70
2023-05-11T09:41:03.146Z,2.00
2023-05-11T09:43:31.609Z,2.05
2023-05-11T09:46:07.768Z,1.88
2023-05-11T09:48:36.195Z,2.05
2023-05-11T09:51:05.681Z,1.90
2023-05-11T09:53:43.541Z,1.88
2023-05-11T09:56:13.015Z,2.20
2023-05-11T09:58:47.718Z,1.88
2023-05-11T10:01:17.350Z,1.70
2023-05-11T10:04:03.028Z,2.10
2023-05-11T10:06:54.084Z,2.25
2023-05-11T10:09:26.372Z,1.92
2023-05-11T10:11:56.155Z,2.08
2023-05-11T10:14:26.000Z,2.15
2023-05-11T10:16:57.749Z,2.25
2023-05-11T10:19:26.933Z,1.90
2023-05-11T10:21:56.868Z,1.85
2023-05-11T10:24:25.799Z,2.75
2023-05-11T10:26:55.388Z,1.95
2023-05-11T10:29:24.651Z,1.77
2023-05-11T10:31:53.703Z,1.88
2023-05-11T10:34:23.722Z,1.98
2023-05-11T10:36:53.894Z,2.20
2023-05-11T10:39:22.614Z,2.38
2023-05-11T10:42:34.232Z,2.00
2023-05-11T10:45:12.283Z,1.85
2023-05-11T10:47:56.524Z,2.45
2023-05-11T10:51:19.316Z,2.45
2023-05-11T10:53:50.835Z,2.13
2023-05-11T10:56:38.126Z,2.00
2023-05-11T10:59:35.028Z,2.00
2023-05-11T11:02:04.360Z,2.10
2023-05-11T11:04:52.469Z,2.15
2023-05-11T11:07:22.238Z,2.28
2023-05-11T11:09:51.086Z,1.50
2023-05-11T11:12:20.311Z,1.98
2023-05-11T11:15:07.088Z,2.10
2023-05-11T11:17:36.478Z,2.05
2023-05-11T11:20:08.254Z,2.05
2023-05-11T11:22:39.633Z,2.13
2023-05-11T11:25:09.592Z,1.55
2023-05-11T11:27:40.477Z,1.73
2023-05-11T11:30:21.546Z,2.05
2023-05-11T11:32:54.944Z,2.00
2023-05-11T11:35:42.726Z,1.83
2023-05-11T11:38:18.788Z,2.13
2023-05-11T11:40:54.352Z,2.92
2023-05-11T11:43:28.909Z,1.90
2023-05-11T11:45:57.841Z,2.00
2023-05-11T11:48:36.354Z,2.15
2023-05-11T11:51:12.554Z,1.88
2023-05-11T11:53:41.404Z,2.42
2023-05-11T11:56:28.953Z,1.85
2023-05-11T11:59:01.535Z,2.40
2023-05-11T12:01:31.208Z,1.75
2023-05-11T12:04:05.662Z,2.78
2023-05-11T12:06:39.104Z,2.72
2023-05-11T12:09:08.442Z,1.95
2023-05-11T12:11:36.451Z,2.13
2023-05-11T12:14:04.541Z,2.72
2023-05-11T12:16:32.818Z,1.67
2023-05-11T12:19:02.292Z,2.17
2023-05-11T12:21:34.149Z,2.22
2023-05-11T12:24:04.932Z,1.73
2023-05-11T12:26:34.573Z,2.78
2023-05-11T12:29:14.226Z,2.03
2023-05-11T12:31:44.619Z,2.00
2023-05-11T12:34:17.328Z,1.95
2023-05-11T12:36:47.470Z,1.83
2023-05-11T12:39:20.585Z,2.13
2023-05-11T12:41:50.806Z,2.00
2023-05-11T12:44:22.532Z,1.83
2023-05-11T12:46:51.016Z,1.50
2023-05-11T12:52:08.413Z,1.88
2023-05-11T12:54:39.089Z,2.65
2023-05-11T12:57:34.249Z,1.80
2023-05-11T13:00:15.108Z,2.05
2023-05-11T13:02:51.578Z,1.80
2023-05-11T13:05:25.079Z,1.85
2023-05-11T13:10:28.428Z,2.25
2023-05-11T13:12:57.096Z,2.55
2023-05-11T13:15:27.787Z,2.10
2023-05-11T13:18:06.079Z,2.55
2023-05-11T13:20:34.868Z,2.20
2023-05-11T13:23:07.702Z,2.08
2023-05-11T13:25:52.116Z,1.90
2023-05-11T13:28:23.600Z,1.85
2023-05-11T13:30:59.715Z,1.80
2023-05-11T13:33:29.363Z,2.25
2023-05-11T13:35:59.474Z,2.38
2023-05-11T13:38:29.216Z,1.88
2023-05-11T13:40:58.958Z,2.28
2023-05-11T13:43:27.502Z,2.15
2023-05-11T13:45:57.176Z,2.00
2023-05-11T13:48:26.991Z,2.00
2023-05-11T13:50:56.662Z,1.83
2023-05-11T13:53:25.634Z,2.08
2023-05-11T13:55:55.842Z,1.90
2023-05-11T13:58:25.030Z,2.58
2023-05-11T14:01:07.352Z,2.60
2023-05-11T14:03:37.323Z,2.30
2023-05-11T14:06:06.989Z,2.20
2023-05-11T14:08:36.424Z,2.35
2023-05-11T14:11:06.007Z,1.83
2023-05-11T14:13:34.727Z,2.25
2023-05-11T14:16:02.872Z,2.13
2023-05-11T14:18:31.410Z,1.75
2023-05-11T14:20:59.961Z,1.77
2023-05-11T14:23:28.777Z,2.10
2023-05-11T14:25:58.443Z,2.20
2023-05-11T14:28:28.008Z,2.25
2023-05-11T14:30:57.524Z,1.90
2023-05-11T14:33:26.261Z,2.35
2023-05-11T14:35:54.988Z,2.28
2023-05-11T14:38:23.201Z,2.33
2023-05-11T14:40:52.535Z,2.05
2023-05-11T14:43:20.930Z,1.92
2023-05-11T14:45:49.479Z,2.33
2023-05-11T14:48:18.220Z,2.13
2023-05-11T14:50:46.859Z,2.25
2023-05-11T14:53:14.814Z,2.08
2023-05-11T14:55:43.921Z,2.00
2023-05-11T14:58:12.457Z,2.42
2023-05-11T15:00:40.825Z,1.98
2023-05-11T15:03:11.374Z,2.00
2023-05-11T15:05:40.748Z,14.68
2023-05-11T15:08:18.242Z,2.67
2023-05-11T15:10:54.242Z,1.90
2023-05-11T15:13:22.659Z,2.15
2023-05-11T15:15:51.163Z,2.20
2023-05-11T15:18:19.248Z,2.35
2023-05-11T15:20:47.435Z,2.40
2023-05-11T15:23:17.407Z,2.17
2023-05-11T15:25:45.903Z,2.80
2023-05-11T15:28:14.499Z,2.55
2023-05-11T15:30:43.004Z,6.28
2023-05-11T15:33:10.822Z,2.80
2023-05-11T15:35:39.332Z,2.13
2023-05-11T15:38:07.160Z,1.98
2023-05-11T15:40:36.489Z,1.75
2023-05-11T15:43:04.915Z,2.20
2023-05-11T15:45:33.372Z,2.10
2023-05-11T15:48:01.112Z,2.22
2023-05-11T15:50:30.223Z,2.25
2023-05-11T15:52:58.362Z,2.22
2023-05-11T15:55:26.837Z,1.90
2023-05-11T15:57:54.483Z,1.75
2023-05-11T16:00:22.255Z,2.00
2023-05-11T16:02:50.132Z,2.40
2023-05-11T16:05:18.683Z,2.28
2023-05-11T16:07:46.333Z,2.30
2023-05-11T16:10:14.439Z,1.90
2023-05-11T16:12:42.297Z,2.08
2023-05-11T16:15:10.557Z,1.90
2023-05-11T16:17:39.138Z,2.15
2023-05-11T16:20:07.880Z,2.05
2023-05-11T16:22:37.480Z,2.00
2023-05-11T16:25:07.201Z,2.42
2023-05-11T16:27:35.862Z,1.95
2023-05-11T16:30:17.919Z,1.73
2023-05-11T16:32:51.089Z,2.00
2023-05-11T16:35:19.108Z,1.90
2023-05-11T16:37:48.386Z,2.20
2023-05-11T16:40:21.739Z,2.00
2023-05-11T16:42:50.390Z,1.95
2023-05-11T16:45:18.995Z,1.90
2023-05-11T16:47:47.034Z,2.05
2023-05-11T16:50:16.769Z,1.92
2023-05-11T16:52:45.357Z,2.38
2023-05-11T16:55:13.553Z,2.00
2023-05-11T16:57:41.685Z,2.50
2023-05-11T17:00:10.536Z,2.03
2023-05-11T17:02:38.502Z,2.20
2023-05-11T17:05:10.957Z,1.88
2023-05-11T17:07:39.299Z,2.00
2023-05-11T17:10:08.194Z,2.42
2023-05-11T17:12:36.116Z,2.28
2023-05-11T17:15:09.652Z,2.10
2023-05-11T17:17:38.309Z,2.28
2023-05-11T17:20:08.604Z,2.25
2023-05-11T17:22:36.287Z,2.03
2023-05-11T17:25:06.043Z,2.10
2023-05-11T17:27:36.748Z,2.30
2023-05-11T17:30:06.379Z,2.50
2023-05-11T17:32:35.279Z,2.10
2023-05-11T17:35:04.608Z,2.55
2023-05-11T17:37:32.764Z,2.33
2023-05-11T17:40:02.030Z,2.10
2023-05-11T17:42:30.205Z,2.20
2023-05-11T17:44:58.396Z,2.13
2023-05-11T17:47:27.242Z,2.53
2023-05-11T17:49:55.991Z,2.38
2023-05-11T17:52:27.469Z,2.08
2023-05-11T17:57:25.774Z,2.28
2023-05-11T17:59:54.297Z,2.22
2023-05-11T18:02:23.019Z,2.30
2023-05-11T18:04:54.104Z,2.40
2023-05-11T18:07:22.741Z,2.67
2023-05-11T18:09:51.194Z,2.40
2023-05-11T18:12:19.065Z,2.80
2023-05-11T18:14:47.553Z,4.63
2023-05-11T18:17:15.373Z,6.93
2023-05-11T18:19:46.152Z,5.88
2023-05-11T18:22:14.635Z,7.78
2023-05-11T18:24:43.274Z,4.30
2023-05-11T18:27:11.916Z,3.63
2023-05-11T18:29:41.940Z,3.55
2023-05-11T18:32:10.235Z,3.30
2023-05-11T18:34:41.564Z,3.10
2023-05-11T18:37:09.914Z,3.10
2023-05-11T18:39:39.306Z,2.60
2023-05-11T18:42:07.343Z,2.70
2023-05-11T18:44:36.411Z,2.63
2023-05-11T18:47:04.441Z,3.30
2023-05-11T18:49:33.002Z,3.20
2023-05-11T18:52:01.337Z,3.58
2023-05-11T18:54:29.650Z,2.75
2023-05-11T18:56:59.273Z,2.97
2023-05-11T18:59:28.686Z,2.88
2023-05-11T19:01:56.769Z,3.35
2023-05-11T19:04:25.212Z,3.40
2023-05-11T19:06:56.205Z,3.00
2023-05-11T19:09:25.356Z,3.20
2023-05-11T19:11:53.152Z,3.55
2023-05-11T19:14:21.672Z,3.30
2023-05-11T19:16:50.069Z,3.53
2023-05-11T19:19:18.947Z,3.90
2023-05-11T19:21:48.994Z,3.38
2023-05-11T19:24:17.708Z,4.20
2023-05-11T19:26:52.397Z,4.45
2023-05-11T19:29:31.748Z,4.50
2023-05-11T19:32:00.751Z,4.70
2023-05-11T19:34:30.280Z,4.03
2023-05-11T19:37:06.835Z,4.22
2023-05-11T19:39:36.412Z,4.78
2023-05-11T19:42:04.447Z,4.30
2023-05-11T19:44:33.645Z,4.20
2023-05-11T19:47:01.651Z,4.32
2023-05-11T19:49:30.193Z,5.22
2023-05-11T19:51:58.247Z,4.53
2023-05-11T19:54:26.965Z,4.93
2023-05-11T19:56:56.745Z,5.72
2023-05-11T19:59:27.877Z,5.68
2023-05-11T20:01:57.515Z,5.82
2023-05-11T20:04:28.547Z,5.20
2023-05-11T20:06:57.890Z,5.90
2023-05-11T20:09:26.470Z,6.05
2023-05-11T20:11:54.135Z,5.05
2023-05-11T20:14:22.290Z,5.57
2023-05-11T20:16:50.535Z,5.60
2023-05-11T20:19:18.887Z,5.88
2023-05-11T20:21:47.161Z,5.28
2023-05-11T20:24:15.868Z,5.22
2023-05-11T20:26:43.842Z,5.28
2023-05-11T20:29:12.298Z,5.47
2023-05-11T20:31:40.164Z,5.20
2023-05-11T20:34:09.350Z,5.93
2023-05-11T20:36:37.262Z,5.07
2023-05-11T20:39:09.674Z,4.97
2023-05-11T20:41:38.095Z,5.85
2023-05-11T20:44:06.356Z,5.85
2023-05-11T20:46:34.279Z,5.30
2023-05-11T20:49:02.514Z,5.28
2023-05-11T20:51:30.318Z,5.85
2023-05-11T20:53:58.737Z,5.68
2023-05-11T20:56:27.237Z,5.10
2023-05-11T20:58:55.441Z,5.72
2023-05-11T21:01:23.411Z,6.10
2023-05-11T21:03:52.067Z,5.20
2023-05-11T21:06:20.212Z,5.68
2023-05-11T21:08:48.389Z,5.63
2023-05-11T21:11:16.608Z,5.10
2023-05-11T21:13:45.729Z,5.22
2023-05-11T21:16:13.618Z,5.60
2023-05-11T21:18:43.999Z,5.43
2023-05-11T21:21:12.420Z,5.75
2023-05-11T21:23:41.183Z,5.97
2023-05-11T21:26:09.230Z,5.40
2023-05-11T21:28:39.751Z,5.65
2023-05-11T21:31:08.295Z,5.63
2023-05-11T21:33:36.778Z,5.97
2023-05-11T21:36:05.910Z,5.65
2023-05-11T21:38:35.428Z,5.95
2023-05-11T21:41:03.993Z,6.18
2023-05-11T21:43:33.558Z,4.90
2023-05-11T21:46:02.316Z,5.30
2023-05-11T21:48:30.923Z,5.53
2023-05-11T21:50:58.740Z,5.82
2023-05-11T21:53:27.602Z,5.82
2023-05-11T21:55:55.980Z,5.85
2023-05-11T21:58:24.588Z,6.07
2023-05-11T22:00:52.662Z,6.32
2023-05-11T22:03:21.062Z,6.00
2023-05-11T22:05:48.969Z,5.38
2023-05-11T22:08:17.654Z,6.15
2023-05-11T22:10:45.672Z,5.82
2023-05-11T22:13:14.030Z,5.63
2023-05-11T22:15:42.473Z,5.75
2023-05-11T22:18:11.071Z,5.97
2023-05-11T22:20:39.314Z,5.93
2023-05-11T22:23:07.705Z,7.25
2023-05-11T22:25:35.596Z,7.00
2023-05-11T22:28:05.349Z,7.28
2023-05-11T22:30:33.624Z,6.55
2023-05-11T22:33:01.852Z,6.28
2023-05-11T22:35:30.603Z,6.65
2023-05-11T22:38:02.033Z,6.57
2023-05-11T22:40:29.773Z,8.40
2023-05-11T22:42:58.422Z,7.68
2023-05-11T22:45:26.168Z,7.32
2023-05-11T22:47:54.821Z,6.85
2023-05-11T22:50:23.004Z,7.30
2023-05-11T22:52:51.205Z,8.13
2023-05-11T22:55:20.456Z,7.30
2023-05-11T22:57:49.741Z,6.95
2023-05-11T23:00:18.312Z,7.13
2023-05-11T23:02:46.897Z,7.55
2023-05-11T23:05:14.930Z,6.97
2023-05-11T23:07:43.280Z,7.72
2023-05-11T23:10:11.810Z,6.80
2023-05-11T23:12:40.552Z,7.65
2023-05-11T23:15:10.164Z,7.50
2023-05-11T23:17:38.348Z,7.68
2023-05-11T23:20:06.843Z,7.55
2023-05-11T23:22:35.183Z,8.07
2023-05-11T23:25:03.826Z,8.05
2023-05-11T23:27:31.833Z,7.38
2023-05-11T23:30:00.156Z,7.32
2023-05-11T23:32:28.222Z,7.57
2023-05-11T23:34:56.439Z,7.85
2023-05-11T23:37:25.151Z,7.45
2023-05-11T23:39:53.022Z,8.00
2023-05-11T23:42:21.749Z,7.40
2023-05-11T23:44:49.502Z,7.63
2023-05-11T23:47:18.056Z,8.75
2023-05-11T23:49:46.625Z,8.15
2023-05-11T23:52:14.943Z,8.00
2023-05-11T23:54:42.612Z,7.20
2023-05-11T23:57:10.838Z,8.15
2023-05-11T23:59:38.687Z,7.47
